sensor_id;sensor_type;location;lat;lon;timestamp;temperature;humidity
23207;DHT22;11773;52.570;13.052;2023-02-15T00:01:59;4.00;99.90
23207;DHT22;11773;52.570;13.052;2023-02-15T00:04:29;4.00;99.90
23207;DHT22;11773;52.570;13.052;2023-02-15T00:07:15;4.00;99.90
23207;DHT22;11773;52.570;13.052;2023-02-15T00:09:47;3.90;99.90
23207;DHT22;11773;52.570;13.052;2023-02-15T00:12:16;3.70;99.90
23207;DHT22;11773;52.570;13.052;2023-02-15T00:14:52;3.80;99.90
23207;DHT22;11773;52.570;13.052;2023-02-15T00:17:22;3.70;99.90
23207;DHT22;11773;52.570;13.052;2023-02-15T00:19:51;3.60;99.90
23207;DHT22;11773;52.570;13.052;2023-02-15T00:22:21;3.60;99.90
23207;DHT22;11773;52.570;13.052;2023-02-15T00:24:50;3.70;99.90
23207;DHT22;11773;52.570;13.052;2023-02-15T00:27:20;3.80;99.90
23207;DHT22;11773;52.570;13.052;2023-02-15T00:29:49;3.70;99.90
23207;DHT22;11773;52.570;13.052;2023-02-15T00:32:19;3.60;99.90
23207;DHT22;11773;52.570;13.052;2023-02-15T00:34:48;3.70;99.90
23207;DHT22;11773;52.570;13.052;2023-02-15T00:37:18;3.70;99.90
23207;DHT22;11773;52.570;13.052;2023-02-15T00:39:47;3.70;99.90
23207;DHT22;11773;52.570;13.052;2023-02-15T00:42:16;3.60;99.90
23207;DHT22;11773;52.570;13.052;2023-02-15T00:44:46;3.60;99.90
23207;DHT22;11773;52.570;13.052;2023-02-15T00:47:15;3.50;99.90
23207;DHT22;11773;52.570;13.052;2023-02-15T00:49:45;3.50;99.90
23207;DHT22;11773;52.570;13.052;2023-02-15T00:52:14;3.50;99.90
23207;DHT22;11773;52.570;13.052;2023-02-15T00:54:44;3.50;99.90
23207;DHT22;11773;52.570;13.052;2023-02-15T00:57:13;3.50;99.90
23207;DHT22;11773;52.570;13.052;2023-02-15T00:59:43;3.40;99.90
23207;DHT22;11773;52.570;13.052;2023-02-15T01:02:12;3.50;99.90
23207;DHT22;11773;52.570;13.052;2023-02-15T01:04:42;3.40;99.90
23207;DHT22;11773;52.570;13.052;2023-02-15T01:07:11;3.40;99.90
23207;DHT22;11773;52.570;13.052;2023-02-15T01:09:41;3.30;99.90
23207;DHT22;11773;52.570;13.052;2023-02-15T01:12:10;3.40;99.90
23207;DHT22;11773;52.570;13.052;2023-02-15T01:14:40;3.30;99.90
23207;DHT22;11773;52.570;13.052;2023-02-15T01:17:09;3.30;99.90
23207;DHT22;11773;52.570;13.052;2023-02-15T01:19:39;3.30;99.90
23207;DHT22;11773;52.570;13.052;2023-02-15T01:22:08;3.20;99.90
23207;DHT22;11773;52.570;13.052;2023-02-15T01:24:38;3.30;99.90
23207;DHT22;11773;52.570;13.052;2023-02-15T01:27:07;3.40;99.90
23207;DHT22;11773;52.570;13.052;2023-02-15T01:29:37;3.50;99.90
23207;DHT22;11773;52.570;13.052;2023-02-15T01:32:06;3.30;99.90
23207;DHT22;11773;52.570;13.052;2023-02-15T01:34:36;3.30;99.90
23207;DHT22;11773;52.570;13.052;2023-02-15T01:37:05;3.20;99.90
23207;DHT22;11773;52.570;13.052;2023-02-15T01:39:35;3.20;99.90
23207;DHT22;11773;52.570;13.052;2023-02-15T01:42:04;3.20;99.90
23207;DHT22;11773;52.570;13.052;2023-02-15T01:44:52;3.10;99.90
23207;DHT22;11773;52.570;13.052;2023-02-15T01:47:36;3.20;99.90
23207;DHT22;11773;52.570;13.052;2023-02-15T01:50:16;3.10;99.90
23207;DHT22;11773;52.570;13.052;2023-02-15T01:53:08;2.90;99.90
23207;DHT22;11773;52.570;13.052;2023-02-15T01:55:44;3.00;99.90
23207;DHT22;11773;52.570;13.052;2023-02-15T01:58:19;3.00;99.90
23207;DHT22;11773;52.570;13.052;2023-02-15T02:00:49;3.10;99.90
23207;DHT22;11773;52.570;13.052;2023-02-15T02:03:23;3.10;99.90
23207;DHT22;11773;52.570;13.052;2023-02-15T02:06:02;3.10;99.90
23207;DHT22;11773;52.570;13.052;2023-02-15T02:08:32;2.90;99.90
23207;DHT22;11773;52.570;13.052;2023-02-15T02:11:02;2.90;99.90
23207;DHT22;11773;52.570;13.052;2023-02-15T02:13:33;2.90;99.90
23207;DHT22;11773;52.570;13.052;2023-02-15T02:16:07;2.80;99.90
23207;DHT22;11773;52.570;13.052;2023-02-15T02:18:57;3.00;99.90
23207;DHT22;11773;52.570;13.052;2023-02-15T02:21:51;2.90;99.90
23207;DHT22;11773;52.570;13.052;2023-02-15T02:27:42;2.80;99.90
23207;DHT22;11773;52.570;13.052;2023-02-15T02:30:40;2.80;99.90
23207;DHT22;11773;52.570;13.052;2023-02-15T02:36:15;2.80;99.90
23207;DHT22;11773;52.570;13.052;2023-02-15T02:39:33;2.60;99.90
23207;DHT22;11773;52.570;13.052;2023-02-15T02:42:25;2.70;99.90
23207;DHT22;11773;52.570;13.052;2023-02-15T02:47:53;2.70;99.90
23207;DHT22;11773;52.570;13.052;2023-02-15T02:50:27;2.50;99.90
23207;DHT22;11773;52.570;13.052;2023-02-15T02:52:59;2.60;99.90
23207;DHT22;11773;52.570;13.052;2023-02-15T02:55:34;2.60;99.90
23207;DHT22;11773;52.570;13.052;2023-02-15T03:01:06;2.60;99.90
23207;DHT22;11773;52.570;13.052;2023-02-15T03:04:13;2.70;99.90
23207;DHT22;11773;52.570;13.052;2023-02-15T03:06:58;2.60;99.90
23207;DHT22;11773;52.570;13.052;2023-02-15T03:09:39;2.60;99.90
23207;DHT22;11773;52.570;13.052;2023-02-15T03:12:20;2.70;99.90
23207;DHT22;11773;52.570;13.052;2023-02-15T03:14:58;2.60;99.90
23207;DHT22;11773;52.570;13.052;2023-02-15T03:17:38;2.60;99.90
23207;DHT22;11773;52.570;13.052;2023-02-15T03:20:13;2.60;99.90
23207;DHT22;11773;52.570;13.052;2023-02-15T03:22:48;2.60;99.90
23207;DHT22;11773;52.570;13.052;2023-02-15T03:27:59;2.40;99.90
23207;DHT22;11773;52.570;13.052;2023-02-15T03:30:31;2.30;99.90
23207;DHT22;11773;52.570;13.052;2023-02-15T03:33:03;2.40;99.90
23207;DHT22;11773;52.570;13.052;2023-02-15T03:35:40;2.30;99.90
23207;DHT22;11773;52.570;13.052;2023-02-15T03:38:17;2.40;99.90
23207;DHT22;11773;52.570;13.052;2023-02-15T03:40:48;2.50;99.90
23207;DHT22;11773;52.570;13.052;2023-02-15T03:46:28;2.30;99.90
23207;DHT22;11773;52.570;13.052;2023-02-15T03:49:14;2.40;99.90
23207;DHT22;11773;52.570;13.052;2023-02-15T03:51:42;2.30;99.90
23207;DHT22;11773;52.570;13.052;2023-02-15T03:54:21;2.30;99.90
23207;DHT22;11773;52.570;13.052;2023-02-15T03:57:18;2.20;99.90
23207;DHT22;11773;52.570;13.052;2023-02-15T04:00:12;2.30;99.90
23207;DHT22;11773;52.570;13.052;2023-02-15T04:03:22;2.30;99.90
23207;DHT22;11773;52.570;13.052;2023-02-15T04:05:52;2.10;99.90
23207;DHT22;11773;52.570;13.052;2023-02-15T04:08:22;2.20;99.90
23207;DHT22;11773;52.570;13.052;2023-02-15T04:10:53;2.20;99.90
23207;DHT22;11773;52.570;13.052;2023-02-15T04:13:31;2.20;99.90
23207;DHT22;11773;52.570;13.052;2023-02-15T04:16:01;2.20;99.90
23207;DHT22;11773;52.570;13.052;2023-02-15T04:18:42;2.20;99.90
23207;DHT22;11773;52.570;13.052;2023-02-15T04:21:30;2.30;99.90
23207;DHT22;11773;52.570;13.052;2023-02-15T04:24:18;2.30;99.90
23207;DHT22;11773;52.570;13.052;2023-02-15T04:27:06;2.10;99.90
23207;DHT22;11773;52.570;13.052;2023-02-15T04:29:35;2.20;99.90
23207;DHT22;11773;52.570;13.052;2023-02-15T04:32:05;2.10;99.90
23207;DHT22;11773;52.570;13.052;2023-02-15T04:34:34;2.10;99.90
23207;DHT22;11773;52.570;13.052;2023-02-15T04:37:04;2.00;99.90
23207;DHT22;11773;52.570;13.052;2023-02-15T04:39:33;2.00;99.90
23207;DHT22;11773;52.570;13.052;2023-02-15T04:42:03;1.90;99.90
23207;DHT22;11773;52.570;13.052;2023-02-15T04:44:32;2.00;99.90
23207;DHT22;11773;52.570;13.052;2023-02-15T04:47:02;1.90;99.90
23207;DHT22;11773;52.570;13.052;2023-02-15T04:49:31;2.00;99.90
23207;DHT22;11773;52.570;13.052;2023-02-15T04:52:00;2.00;99.90
23207;DHT22;11773;52.570;13.052;2023-02-15T04:54:30;2.00;99.90
23207;DHT22;11773;52.570;13.052;2023-02-15T04:56:59;1.90;99.90
23207;DHT22;11773;52.570;13.052;2023-02-15T04:59:29;1.90;99.90
23207;DHT22;11773;52.570;13.052;2023-02-15T05:01:58;1.90;99.90
23207;DHT22;11773;52.570;13.052;2023-02-15T05:04:28;1.90;99.90
23207;DHT22;11773;52.570;13.052;2023-02-15T05:06:57;1.90;99.90
23207;DHT22;11773;52.570;13.052;2023-02-15T05:09:27;1.90;99.90
23207;DHT22;11773;52.570;13.052;2023-02-15T05:11:56;2.00;99.90
23207;DHT22;11773;52.570;13.052;2023-02-15T05:14:26;1.90;99.90
23207;DHT22;11773;52.570;13.052;2023-02-15T05:16:55;1.90;99.90
23207;DHT22;11773;52.570;13.052;2023-02-15T05:19:27;1.90;99.90
23207;DHT22;11773;52.570;13.052;2023-02-15T05:21:56;1.80;99.90
23207;DHT22;11773;52.570;13.052;2023-02-15T05:24:26;1.80;99.90
23207;DHT22;11773;52.570;13.052;2023-02-15T05:27:14;1.90;99.90
23207;DHT22;11773;52.570;13.052;2023-02-15T05:30:02;2.00;99.90
23207;DHT22;11773;52.570;13.052;2023-02-15T05:32:32;1.80;99.90
23207;DHT22;11773;52.570;13.052;2023-02-15T05:35:01;1.80;99.90
23207;DHT22;11773;52.570;13.052;2023-02-15T05:37:31;1.70;99.90
23207;DHT22;11773;52.570;13.052;2023-02-15T05:40:00;1.70;99.90
23207;DHT22;11773;52.570;13.052;2023-02-15T05:42:30;1.70;99.90
23207;DHT22;11773;52.570;13.052;2023-02-15T05:44:59;1.80;99.90
23207;DHT22;11773;52.570;13.052;2023-02-15T05:47:31;1.80;99.90
23207;DHT22;11773;52.570;13.052;2023-02-15T05:50:00;1.70;99.90
23207;DHT22;11773;52.570;13.052;2023-02-15T05:52:30;1.60;99.90
23207;DHT22;11773;52.570;13.052;2023-02-15T05:54:59;1.70;99.90
23207;DHT22;11773;52.570;13.052;2023-02-15T05:57:30;1.70;99.90
23207;DHT22;11773;52.570;13.052;2023-02-15T06:00:00;1.80;99.90
23207;DHT22;11773;52.570;13.052;2023-02-15T06:02:35;1.70;99.90
23207;DHT22;11773;52.570;13.052;2023-02-15T06:05:06;1.80;99.90
23207;DHT22;11773;52.570;13.052;2023-02-15T06:07:36;1.80;99.90
23207;DHT22;11773;52.570;13.052;2023-02-15T06:10:06;1.80;99.90
23207;DHT22;11773;52.570;13.052;2023-02-15T06:12:36;1.80;99.90
23207;DHT22;11773;52.570;13.052;2023-02-15T06:15:06;1.80;99.90
23207;DHT22;11773;52.570;13.052;2023-02-15T06:17:35;1.80;99.90
23207;DHT22;11773;52.570;13.052;2023-02-15T06:20:05;1.90;99.90
23207;DHT22;11773;52.570;13.052;2023-02-15T06:22:35;1.90;99.90
23207;DHT22;11773;52.570;13.052;2023-02-15T06:25:05;1.90;99.90
23207;DHT22;11773;52.570;13.052;2023-02-15T06:27:37;1.90;99.90
23207;DHT22;11773;52.570;13.052;2023-02-15T06:30:09;1.90;99.90
23207;DHT22;11773;52.570;13.052;2023-02-15T06:32:40;2.00;99.90
23207;DHT22;11773;52.570;13.052;2023-02-15T06:35:09;2.10;99.90
23207;DHT22;11773;52.570;13.052;2023-02-15T06:37:39;2.10;99.90
23207;DHT22;11773;52.570;13.052;2023-02-15T06:40:09;2.20;99.90
23207;DHT22;11773;52.570;13.052;2023-02-15T06:42:38;2.30;99.90
23207;DHT22;11773;52.570;13.052;2023-02-15T06:45:09;2.20;99.90
23207;DHT22;11773;52.570;13.052;2023-02-15T06:47:39;2.20;99.90
23207;DHT22;11773;52.570;13.052;2023-02-15T06:50:09;2.20;99.90
23207;DHT22;11773;52.570;13.052;2023-02-15T06:52:39;2.10;99.90
23207;DHT22;11773;52.570;13.052;2023-02-15T06:55:08;2.10;99.90
23207;DHT22;11773;52.570;13.052;2023-02-15T06:57:38;2.20;99.90
23207;DHT22;11773;52.570;13.052;2023-02-15T07:00:08;2.20;99.90
23207;DHT22;11773;52.570;13.052;2023-02-15T07:02:38;2.30;99.90
23207;DHT22;11773;52.570;13.052;2023-02-15T07:05:07;2.20;99.90
23207;DHT22;11773;52.570;13.052;2023-02-15T07:07:37;2.30;99.90
23207;DHT22;11773;52.570;13.052;2023-02-15T07:10:06;2.30;99.90
23207;DHT22;11773;52.570;13.052;2023-02-15T07:12:36;2.20;99.90
23207;DHT22;11773;52.570;13.052;2023-02-15T07:15:16;2.00;99.90
23207;DHT22;11773;52.570;13.052;2023-02-15T07:17:48;2.20;99.90
23207;DHT22;11773;52.570;13.052;2023-02-15T07:20:20;2.10;99.90
23207;DHT22;11773;52.570;13.052;2023-02-15T07:22:51;2.00;99.90
23207;DHT22;11773;52.570;13.052;2023-02-15T07:25:20;2.30;99.90
23207;DHT22;11773;52.570;13.052;2023-02-15T07:27:58;2.30;99.90
23207;DHT22;11773;52.570;13.052;2023-02-15T07:30:28;2.30;99.90
23207;DHT22;11773;52.570;13.052;2023-02-15T07:32:59;2.20;99.90
23207;DHT22;11773;52.570;13.052;2023-02-15T07:35:51;2.30;99.90
23207;DHT22;11773;52.570;13.052;2023-02-15T07:38:26;2.50;99.90
23207;DHT22;11773;52.570;13.052;2023-02-15T07:41:02;2.40;99.90
23207;DHT22;11773;52.570;13.052;2023-02-15T07:43:36;2.30;99.90
23207;DHT22;11773;52.570;13.052;2023-02-15T07:46:09;2.40;99.90
23207;DHT22;11773;52.570;13.052;2023-02-15T07:48:40;2.40;99.90
23207;DHT22;11773;52.570;13.052;2023-02-15T07:51:12;2.40;99.90
23207;DHT22;11773;52.570;13.052;2023-02-15T07:53:42;2.30;99.90
23207;DHT22;11773;52.570;13.052;2023-02-15T07:56:13;2.30;99.90
23207;DHT22;11773;52.570;13.052;2023-02-15T07:58:43;2.40;99.90
23207;DHT22;11773;52.570;13.052;2023-02-15T08:01:27;2.50;99.90
23207;DHT22;11773;52.570;13.052;2023-02-15T08:04:00;2.60;99.90
23207;DHT22;11773;52.570;13.052;2023-02-15T08:06:33;2.60;99.90
23207;DHT22;11773;52.570;13.052;2023-02-15T08:09:05;2.60;99.90
23207;DHT22;11773;52.570;13.052;2023-02-15T08:11:37;2.70;99.90
23207;DHT22;11773;52.570;13.052;2023-02-15T08:14:15;2.60;99.90
23207;DHT22;11773;52.570;13.052;2023-02-15T08:16:48;2.70;99.90
23207;DHT22;11773;52.570;13.052;2023-02-15T08:19:21;2.50;99.90
23207;DHT22;11773;52.570;13.052;2023-02-15T08:22:02;2.60;99.90
23207;DHT22;11773;52.570;13.052;2023-02-15T08:24:35;2.60;99.90
23207;DHT22;11773;52.570;13.052;2023-02-15T08:27:07;2.60;99.90
23207;DHT22;11773;52.570;13.052;2023-02-15T08:29:38;2.70;99.90
23207;DHT22;11773;52.570;13.052;2023-02-15T08:32:11;2.50;99.90
23207;DHT22;11773;52.570;13.052;2023-02-15T08:35:00;2.60;99.90
23207;DHT22;11773;52.570;13.052;2023-02-15T08:37:30;2.70;99.90
23207;DHT22;11773;52.570;13.052;2023-02-15T08:39:59;2.60;99.90
23207;DHT22;11773;52.570;13.052;2023-02-15T08:42:30;2.80;99.90
23207;DHT22;11773;52.570;13.052;2023-02-15T08:45:01;2.80;99.90
23207;DHT22;11773;52.570;13.052;2023-02-15T08:47:31;2.80;99.90
23207;DHT22;11773;52.570;13.052;2023-02-15T08:50:00;2.70;99.90
23207;DHT22;11773;52.570;13.052;2023-02-15T08:52:30;2.90;99.90
23207;DHT22;11773;52.570;13.052;2023-02-15T08:54:59;2.90;99.90
23207;DHT22;11773;52.570;13.052;2023-02-15T08:57:29;2.90;99.90
23207;DHT22;11773;52.570;13.052;2023-02-15T08:59:58;2.80;99.90
23207;DHT22;11773;52.570;13.052;2023-02-15T09:02:28;2.90;99.90
23207;DHT22;11773;52.570;13.052;2023-02-15T09:04:57;3.00;99.90
23207;DHT22;11773;52.570;13.052;2023-02-15T09:07:27;3.20;99.90
23207;DHT22;11773;52.570;13.052;2023-02-15T09:09:56;3.30;99.90
23207;DHT22;11773;52.570;13.052;2023-02-15T09:12:26;3.40;99.90
23207;DHT22;11773;52.570;13.052;2023-02-15T09:14:56;3.30;99.90
23207;DHT22;11773;52.570;13.052;2023-02-15T09:17:25;3.40;99.90
23207;DHT22;11773;52.570;13.052;2023-02-15T09:19:55;3.50;99.90
23207;DHT22;11773;52.570;13.052;2023-02-15T09:22:24;3.60;99.90
23207;DHT22;11773;52.570;13.052;2023-02-15T09:24:53;3.50;99.90
23207;DHT22;11773;52.570;13.052;2023-02-15T09:27:23;3.50;99.90
23207;DHT22;11773;52.570;13.052;2023-02-15T09:29:52;3.60;99.90
23207;DHT22;11773;52.570;13.052;2023-02-15T09:32:22;3.60;99.90
23207;DHT22;11773;52.570;13.052;2023-02-15T09:34:51;3.60;99.90
23207;DHT22;11773;52.570;13.052;2023-02-15T09:37:21;3.70;99.90
23207;DHT22;11773;52.570;13.052;2023-02-15T09:39:50;3.70;99.90
23207;DHT22;11773;52.570;13.052;2023-02-15T09:42:43;3.70;99.90
23207;DHT22;11773;52.570;13.052;2023-02-15T09:45:37;3.70;99.90
23207;DHT22;11773;52.570;13.052;2023-02-15T09:48:46;3.80;99.90
23207;DHT22;11773;52.570;13.052;2023-02-15T09:54:36;3.90;99.90
23207;DHT22;11773;52.570;13.052;2023-02-15T09:57:29;3.80;99.90
23207;DHT22;11773;52.570;13.052;2023-02-15T10:00:28;3.70;99.90
23207;DHT22;11773;52.570;13.052;2023-02-15T10:03:24;3.90;99.90
23207;DHT22;11773;52.570;13.052;2023-02-15T10:06:18;3.90;99.90
23207;DHT22;11773;52.570;13.052;2023-02-15T10:11:44;4.00;99.90
23207;DHT22;11773;52.570;13.052;2023-02-15T10:17:31;4.00;99.90
23207;DHT22;11773;52.570;13.052;2023-02-15T10:23:38;4.00;99.90
23207;DHT22;11773;52.570;13.052;2023-02-15T10:26:26;3.90;99.90
23207;DHT22;11773;52.570;13.052;2023-02-15T10:29:02;4.10;99.90
23207;DHT22;11773;52.570;13.052;2023-02-15T10:31:51;4.30;99.90
23207;DHT22;11773;52.570;13.052;2023-02-15T10:34:51;4.00;99.90
23207;DHT22;11773;52.570;13.052;2023-02-15T10:37:53;3.90;99.90
23207;DHT22;11773;52.570;13.052;2023-02-15T10:40:32;4.10;99.90
23207;DHT22;11773;52.570;13.052;2023-02-15T10:43:37;4.20;99.90
23207;DHT22;11773;52.570;13.052;2023-02-15T10:46:24;4.30;99.90
23207;DHT22;11773;52.570;13.052;2023-02-15T10:51:39;4.40;99.90
23207;DHT22;11773;52.570;13.052;2023-02-15T10:54:31;4.20;99.90
23207;DHT22;11773;52.570;13.052;2023-02-15T10:57:23;4.40;99.90
23207;DHT22;11773;52.570;13.052;2023-02-15T11:02:57;4.30;99.90
23207;DHT22;11773;52.570;13.052;2023-02-15T11:05:46;4.40;99.90
23207;DHT22;11773;52.570;13.052;2023-02-15T11:08:32;4.50;99.90
23207;DHT22;11773;52.570;13.052;2023-02-15T11:11:09;4.50;99.90
23207;DHT22;11773;52.570;13.052;2023-02-15T11:13:44;4.60;99.90
23207;DHT22;11773;52.570;13.052;2023-02-15T11:16:37;4.60;99.90
23207;DHT22;11773;52.570;13.052;2023-02-15T11:19:16;4.80;99.90
23207;DHT22;11773;52.570;13.052;2023-02-15T11:22:04;4.80;99.90
23207;DHT22;11773;52.570;13.052;2023-02-15T11:24:39;4.80;99.90
23207;DHT22;11773;52.570;13.052;2023-02-15T11:27:22;4.80;99.90
23207;DHT22;11773;52.570;13.052;2023-02-15T11:30:06;4.90;99.90
23207;DHT22;11773;52.570;13.052;2023-02-15T11:32:45;5.00;99.90
23207;DHT22;11773;52.570;13.052;2023-02-15T11:35:33;5.10;99.90
23207;DHT22;11773;52.570;13.052;2023-02-15T11:38:17;5.20;99.90
23207;DHT22;11773;52.570;13.052;2023-02-15T11:41:05;5.30;99.90
23207;DHT22;11773;52.570;13.052;2023-02-15T11:46:42;5.30;99.90
23207;DHT22;11773;52.570;13.052;2023-02-15T11:49:23;5.40;99.90
23207;DHT22;11773;52.570;13.052;2023-02-15T11:52:04;5.30;99.90
23207;DHT22;11773;52.570;13.052;2023-02-15T11:54:40;5.60;99.90
23207;DHT22;11773;52.570;13.052;2023-02-15T11:57:23;5.50;99.90
23207;DHT22;11773;52.570;13.052;2023-02-15T12:02:55;5.50;99.90
23207;DHT22;11773;52.570;13.052;2023-02-15T12:05:26;5.60;99.90
23207;DHT22;11773;52.570;13.052;2023-02-15T12:08:00;5.80;99.90
23207;DHT22;11773;52.570;13.052;2023-02-15T12:10:36;5.90;99.90
23207;DHT22;11773;52.570;13.052;2023-02-15T12:13:15;6.00;99.90
23207;DHT22;11773;52.570;13.052;2023-02-15T12:15:48;6.10;99.90
23207;DHT22;11773;52.570;13.052;2023-02-15T12:18:42;6.00;99.90
23207;DHT22;11773;52.570;13.052;2023-02-15T12:21:38;6.00;99.90
23207;DHT22;11773;52.570;13.052;2023-02-15T12:24:22;6.30;99.90
23207;DHT22;11773;52.570;13.052;2023-02-15T12:27:00;6.40;99.90
23207;DHT22;11773;52.570;13.052;2023-02-15T12:29:39;6.50;99.90
23207;DHT22;11773;52.570;13.052;2023-02-15T12:32:26;6.50;99.90
23207;DHT22;11773;52.570;13.052;2023-02-15T12:35:27;6.60;99.90
23207;DHT22;11773;52.570;13.052;2023-02-15T12:40:44;6.80;99.90
23207;DHT22;11773;52.570;13.052;2023-02-15T12:43:35;6.90;99.90
23207;DHT22;11773;52.570;13.052;2023-02-15T12:46:20;6.90;99.90
23207;DHT22;11773;52.570;13.052;2023-02-15T12:49:16;7.10;99.90
23207;DHT22;11773;52.570;13.052;2023-02-15T12:51:54;7.20;99.90
23207;DHT22;11773;52.570;13.052;2023-02-15T12:57:32;7.20;99.90
23207;DHT22;11773;52.570;13.052;2023-02-15T13:00:24;7.40;99.90
23207;DHT22;11773;52.570;13.052;2023-02-15T13:02:55;7.40;99.90
23207;DHT22;11773;52.570;13.052;2023-02-15T13:05:41;7.50;99.90
23207;DHT22;11773;52.570;13.052;2023-02-15T13:08:18;7.60;99.90
23207;DHT22;11773;52.570;13.052;2023-02-15T13:11:01;7.70;99.90
23207;DHT22;11773;52.570;13.052;2023-02-15T13:13:56;7.70;99.90
23207;DHT22;11773;52.570;13.052;2023-02-15T13:16:36;7.80;99.90
23207;DHT22;11773;52.570;13.052;2023-02-15T13:19:16;7.80;99.90
23207;DHT22;11773;52.570;13.052;2023-02-15T13:21:52;7.90;99.90
23207;DHT22;11773;52.570;13.052;2023-02-15T13:24:42;8.00;99.90
23207;DHT22;11773;52.570;13.052;2023-02-15T13:27:18;8.10;99.90
23207;DHT22;11773;52.570;13.052;2023-02-15T13:29:54;8.10;99.90
23207;DHT22;11773;52.570;13.052;2023-02-15T13:32:35;8.10;99.90
23207;DHT22;11773;52.570;13.052;2023-02-15T13:35:13;8.20;99.90
23207;DHT22;11773;52.570;13.052;2023-02-15T13:38:16;8.30;99.90
23207;DHT22;11773;52.570;13.052;2023-02-15T13:40:54;8.40;99.90
23207;DHT22;11773;52.570;13.052;2023-02-15T13:43:37;8.50;99.90
23207;DHT22;11773;52.570;13.052;2023-02-15T13:52:27;8.40;99.90
23207;DHT22;11773;52.570;13.052;2023-02-15T13:58:42;8.50;99.90
23207;DHT22;11773;52.570;13.052;2023-02-15T14:01:31;8.60;99.90
23207;DHT22;11773;52.570;13.052;2023-02-15T14:04:46;8.70;99.90
23207;DHT22;11773;52.570;13.052;2023-02-15T14:07:28;8.60;99.90
23207;DHT22;11773;52.570;13.052;2023-02-15T14:16:03;8.80;99.90
23207;DHT22;11773;52.570;13.052;2023-02-15T14:18:40;8.80;99.90
23207;DHT22;11773;52.570;13.052;2023-02-15T14:21:42;8.90;99.90
23207;DHT22;11773;52.570;13.052;2023-02-15T14:27:18;9.00;99.90
23207;DHT22;11773;52.570;13.052;2023-02-15T14:30:03;9.00;99.90
23207;DHT22;11773;52.570;13.052;2023-02-15T14:32:40;9.00;99.90
23207;DHT22;11773;52.570;13.052;2023-02-15T14:35:20;9.10;99.90
23207;DHT22;11773;52.570;13.052;2023-02-15T14:41:04;9.20;99.90
23207;DHT22;11773;52.570;13.052;2023-02-15T14:43:48;9.20;99.90
23207;DHT22;11773;52.570;13.052;2023-02-15T14:47:00;9.20;99.90
23207;DHT22;11773;52.570;13.052;2023-02-15T14:49:27;9.20;99.90
23207;DHT22;11773;52.570;13.052;2023-02-15T14:52:07;9.30;99.90
23207;DHT22;11773;52.570;13.052;2023-02-15T14:59:57;9.30;99.90
23207;DHT22;11773;52.570;13.052;2023-02-15T15:02:51;9.20;99.90
23207;DHT22;11773;52.570;13.052;2023-02-15T15:05:35;9.20;99.90
23207;DHT22;11773;52.570;13.052;2023-02-15T15:08:19;9.20;99.90
23207;DHT22;11773;52.570;13.052;2023-02-15T15:10:42;9.20;99.90
23207;DHT22;11773;52.570;13.052;2023-02-15T15:13:34;9.20;99.90
23207;DHT22;11773;52.570;13.052;2023-02-15T15:18:56;9.10;99.90
23207;DHT22;11773;52.570;13.052;2023-02-15T15:33:25;9.00;99.90
23207;DHT22;11773;52.570;13.052;2023-02-15T15:36:36;8.90;99.90
23207;DHT22;11773;52.570;13.052;2023-02-15T15:39:49;8.70;99.90
23207;DHT22;11773;52.570;13.052;2023-02-15T15:42:51;8.60;99.90
23207;DHT22;11773;52.570;13.052;2023-02-15T15:45:43;8.50;99.90
23207;DHT22;11773;52.570;13.052;2023-02-15T15:48:30;8.40;99.90
23207;DHT22;11773;52.570;13.052;2023-02-15T15:51:09;8.30;99.90
23207;DHT22;11773;52.570;13.052;2023-02-15T15:53:42;8.20;99.90
23207;DHT22;11773;52.570;13.052;2023-02-15T15:56:22;8.20;99.90
23207;DHT22;11773;52.570;13.052;2023-02-15T15:58:57;8.20;99.90
23207;DHT22;11773;52.570;13.052;2023-02-15T16:01:30;8.30;99.90
23207;DHT22;11773;52.570;13.052;2023-02-15T16:04:28;8.30;99.90
23207;DHT22;11773;52.570;13.052;2023-02-15T16:09:59;8.10;99.90
23207;DHT22;11773;52.570;13.052;2023-02-15T16:12:38;7.90;99.90
23207;DHT22;11773;52.570;13.052;2023-02-15T16:15:14;7.80;99.90
23207;DHT22;11773;52.570;13.052;2023-02-15T16:17:47;7.70;99.90
23207;DHT22;11773;52.570;13.052;2023-02-15T16:20:21;7.50;99.90
23207;DHT22;11773;52.570;13.052;2023-02-15T16:28:50;7.50;99.90
23207;DHT22;11773;52.570;13.052;2023-02-15T16:31:22;7.50;99.90
23207;DHT22;11773;52.570;13.052;2023-02-15T16:33:54;7.40;99.90
23207;DHT22;11773;52.570;13.052;2023-02-15T16:36:28;7.40;99.90
23207;DHT22;11773;52.570;13.052;2023-02-15T16:41:37;7.50;99.90
23207;DHT22;11773;52.570;13.052;2023-02-15T16:44:12;7.40;99.90
23207;DHT22;11773;52.570;13.052;2023-02-15T16:46:42;7.40;99.90
23207;DHT22;11773;52.570;13.052;2023-02-15T16:49:24;7.20;99.90
23207;DHT22;11773;52.570;13.052;2023-02-15T16:52:04;7.20;99.90
23207;DHT22;11773;52.570;13.052;2023-02-15T16:54:36;7.20;99.90
23207;DHT22;11773;52.570;13.052;2023-02-15T16:57:05;7.30;99.90
23207;DHT22;11773;52.570;13.052;2023-02-15T16:59:46;7.20;99.90
23207;DHT22;11773;52.570;13.052;2023-02-15T17:02:20;7.20;99.90
23207;DHT22;11773;52.570;13.052;2023-02-15T17:08:17;7.10;99.90
23207;DHT22;11773;52.570;13.052;2023-02-15T17:11:03;7.00;99.90
23207;DHT22;11773;52.570;13.052;2023-02-15T17:19:31;6.90;99.90
23207;DHT22;11773;52.570;13.052;2023-02-15T17:22:03;6.90;99.90
23207;DHT22;11773;52.570;13.052;2023-02-15T17:24:37;6.70;99.90
23207;DHT22;11773;52.570;13.052;2023-02-15T17:27:19;6.70;99.90
23207;DHT22;11773;52.570;13.052;2023-02-15T17:29:56;6.60;99.90
23207;DHT22;11773;52.570;13.052;2023-02-15T17:32:29;6.60;99.90
23207;DHT22;11773;52.570;13.052;2023-02-15T17:35:29;6.60;99.90
23207;DHT22;11773;52.570;13.052;2023-02-15T17:37:48;6.50;99.90
23207;DHT22;11773;52.570;13.052;2023-02-15T17:40:30;6.40;99.90
23207;DHT22;11773;52.570;13.052;2023-02-15T17:43:04;6.40;99.90
23207;DHT22;11773;52.570;13.052;2023-02-15T17:45:44;6.30;99.90
23207;DHT22;11773;52.570;13.052;2023-02-15T17:48:23;6.30;99.90
23207;DHT22;11773;52.570;13.052;2023-02-15T17:50:59;6.30;99.90
23207;DHT22;11773;52.570;13.052;2023-02-15T17:53:31;6.20;99.90
23207;DHT22;11773;52.570;13.052;2023-02-15T17:56:01;6.20;99.90
23207;DHT22;11773;52.570;13.052;2023-02-15T17:58:32;6.10;99.90
23207;DHT22;11773;52.570;13.052;2023-02-15T18:01:05;6.10;99.90
23207;DHT22;11773;52.570;13.052;2023-02-15T18:03:54;5.90;99.90
23207;DHT22;11773;52.570;13.052;2023-02-15T18:06:43;5.90;99.90
23207;DHT22;11773;52.570;13.052;2023-02-15T18:09:30;5.80;99.90
23207;DHT22;11773;52.570;13.052;2023-02-15T18:12:23;5.90;99.90
23207;DHT22;11773;52.570;13.052;2023-02-15T18:14:55;5.90;99.90
23207;DHT22;11773;52.570;13.052;2023-02-15T18:17:43;5.90;99.90
23207;DHT22;11773;52.570;13.052;2023-02-15T18:20:25;5.80;99.90
23207;DHT22;11773;52.570;13.052;2023-02-15T18:22:55;5.80;99.90